Time;durP1;ratioP1;P1;durP2;ratioP2;P2;SDS_P1;SDS_P2;PMS_P1;PMS_P2;Temp;Humidity;BMP_temperature;BMP_pressure;BME280_temperature;BME280_humidity;BME280_pressure;Samples;Min_cycle;Max_cycle;Signal;HPM_P1;HPM_P2
2023/11/01 00:00:44;;;;;;;7.50;3.80;;;;;;;;;;5021957;28;20025;-82
2023/11/01 00:03:09;;;;;;;10.93;4.03;;;;;;;;;;5028344;28;20032;-84
2023/11/01 00:05:35;;;;;;;10.45;3.67;;;;;;;;;;5021565;28;20059;-81
2023/11/01 00:08:00;;;;;;;8.90;3.50;;;;;;;;;;5021405;28;20026;-83
2023/11/01 00:10:26;;;;;;;6.13;3.45;;;;;;;;;;5019839;28;20075;-83
2023/11/01 00:12:51;;;;;;;8.25;3.17;;;;;;;;;;5024955;28;20497;-83
2023/11/01 00:15:17;;;;;;;7.00;3.80;;;;;;;;;;5020426;28;20030;-83
2023/11/01 00:17:43;;;;;;;7.20;3.30;;;;;;;;;;5021394;28;20021;-83
2023/11/01 00:20:09;;;;;;;6.03;3.58;;;;;;;;;;5016805;28;20043;-82
2023/11/01 00:22:35;;;;;;;9.63;3.80;;;;;;;;;;5024750;28;20031;-83
2023/11/01 00:25:04;;;;;;;6.93;3.20;;;;;;;;;;5039808;28;20037;-89
2023/11/01 00:27:31;;;;;;;8.75;3.50;;;;;;;;;;5019764;28;20476;-87
2023/11/01 00:29:58;;;;;;;9.05;3.53;;;;;;;;;;5023976;28;20032;-88
2023/11/01 00:32:24;;;;;;;8.73;3.70;;;;;;;;;;5026197;28;20071;-89
2023/11/01 00:34:49;;;;;;;6.93;3.22;;;;;;;;;;5022843;28;20358;-88
2023/11/01 00:37:15;;;;;;;8.95;3.83;;;;;;;;;;5029090;28;20052;-89
2023/11/01 00:39:40;;;;;;;9.07;3.45;;;;;;;;;;5016641;28;20029;-88
2023/11/01 00:42:06;;;;;;;9.00;3.38;;;;;;;;;;5023790;28;20030;-88
2023/11/01 00:44:31;;;;;;;8.40;3.67;;;;;;;;;;5036090;28;20022;-88
2023/11/01 00:46:57;;;;;;;7.38;3.38;;;;;;;;;;5016252;28;20025;-88
2023/11/01 00:49:22;;;;;;;8.38;3.38;;;;;;;;;;5020550;28;20021;-88
2023/11/01 00:51:47;;;;;;;9.35;3.40;;;;;;;;;;5018314;28;20436;-89
2023/11/01 00:54:13;;;;;;;9.38;3.35;;;;;;;;;;5021275;28;20032;-89
2023/11/01 00:56:38;;;;;;;7.43;3.50;;;;;;;;;;5021986;28;20026;-88
2023/11/01 00:59:04;;;;;;;8.23;3.35;;;;;;;;;;5024321;28;20029;-87
2023/11/01 01:01:29;;;;;;;7.75;3.03;;;;;;;;;;5018803;28;20044;-88
2023/11/01 01:03:54;;;;;;;7.72;3.15;;;;;;;;;;5017509;28;20021;-87
2023/11/01 01:06:20;;;;;;;9.52;3.13;;;;;;;;;;5024241;28;20037;-90
2023/11/01 01:08:45;;;;;;;9.85;3.30;;;;;;;;;;5037009;28;20037;-88
2023/11/01 01:11:11;;;;;;;7.03;2.90;;;;;;;;;;5026522;28;20053;-88
2023/11/01 01:13:36;;;;;;;8.30;2.97;;;;;;;;;;5025390;28;20420;-88
2023/11/01 01:16:03;;;;;;;7.45;2.83;;;;;;;;;;5022114;28;20366;-89
2023/11/01 01:18:28;;;;;;;5.63;2.60;;;;;;;;;;5021927;28;20397;-88
2023/11/01 01:20:55;;;;;;;6.63;2.60;;;;;;;;;;5016964;28;20030;-88
2023/11/01 01:23:20;;;;;;;6.38;2.55;;;;;;;;;;5022779;28;21205;-89
2023/11/01 01:25:46;;;;;;;9.95;2.85;;;;;;;;;;5023595;28;20108;-88
2023/11/01 01:28:12;;;;;;;5.72;2.75;;;;;;;;;;5023630;28;20057;-88
2023/11/01 01:30:37;;;;;;;5.65;2.58;;;;;;;;;;5018989;28;20057;-88
2023/11/01 01:33:03;;;;;;;9.27;2.70;;;;;;;;;;5018626;28;20033;-89
2023/11/01 01:35:29;;;;;;;6.85;2.25;;;;;;;;;;5015962;28;20535;-83
2023/11/01 01:37:54;;;;;;;8.10;2.47;;;;;;;;;;5029264;28;20029;-83
2023/11/01 01:40:20;;;;;;;6.90;2.60;;;;;;;;;;5028150;28;20492;-89
2023/11/01 01:42:46;;;;;;;6.60;2.40;;;;;;;;;;5027888;28;20025;-92
2023/11/01 01:45:11;;;;;;;5.80;2.50;;;;;;;;;;5029828;28;20716;-89
2023/11/01 01:47:37;;;;;;;8.35;2.67;;;;;;;;;;5036663;28;20104;-90
2023/11/01 01:50:03;;;;;;;8.52;2.30;;;;;;;;;;5031127;28;20033;-92
2023/11/01 01:52:28;;;;;;;5.40;2.10;;;;;;;;;;5022110;28;20075;-93
2023/11/01 01:54:54;;;;;;;10.52;2.38;;;;;;;;;;5021941;28;20025;-91
2023/11/01 01:57:24;;;;;;;8.55;2.22;;;;;;;;;;5024913;28;20091;-92
2023/11/01 01:59:54;;;;;;;6.10;2.40;;;;;;;;;;5027196;28;20017;-90
2023/11/01 02:02:20;;;;;;;7.72;2.53;;;;;;;;;;5027039;28;20479;-89
2023/11/01 02:04:48;;;;;;;5.55;1.92;;;;;;;;;;5022656;28;20116;-90
2023/11/01 02:07:14;;;;;;;9.38;2.22;;;;;;;;;;5025280;28;20030;-92
2023/11/01 02:09:40;;;;;;;6.20;2.00;;;;;;;;;;5024069;28;20076;-90
2023/11/01 02:12:05;;;;;;;4.32;1.88;;;;;;;;;;5021685;28;20025;-92
2023/11/01 02:14:31;;;;;;;7.43;2.20;;;;;;;;;;5039290;28;20021;-90
2023/11/01 02:16:56;;;;;;;8.52;2.58;;;;;;;;;;5026083;28;20034;-91
2023/11/01 02:19:24;;;;;;;7.50;1.88;;;;;;;;;;5018808;28;20030;-85
2023/11/01 02:21:50;;;;;;;6.15;1.90;;;;;;;;;;5019814;28;20057;-90
2023/11/01 02:24:16;;;;;;;6.03;1.95;;;;;;;;;;5024134;28;20052;-91
2023/11/01 02:26:41;;;;;;;5.38;2.05;;;;;;;;;;5023977;28;20105;-87
2023/11/01 02:29:07;;;;;;;7.15;1.98;;;;;;;;;;5027361;28;20048;-92
2023/11/01 02:31:33;;;;;;;4.85;1.90;;;;;;;;;;5034232;28;20045;-89
2023/11/01 02:33:58;;;;;;;8.38;2.10;;;;;;;;;;5024309;28;20040;-88
2023/11/01 02:36:24;;;;;;;4.80;1.80;;;;;;;;;;5030609;28;20025;-91
2023/11/01 02:38:49;;;;;;;7.53;2.20;;;;;;;;;;5021726;28;20068;-89
2023/11/01 02:41:15;;;;;;;3.80;1.77;;;;;;;;;;5020611;28;20423;-90
2023/11/01 02:43:41;;;;;;;7.07;2.70;;;;;;;;;;5020506;28;20088;-89
2023/11/01 02:46:06;;;;;;;4.65;2.30;;;;;;;;;;5024192;28;20033;-92
2023/11/01 02:48:32;;;;;;;7.45;2.60;;;;;;;;;;5025307;28;20025;-91
2023/11/01 02:50:57;;;;;;;7.30;2.67;;;;;;;;;;5019502;28;20272;-85
2023/11/01 02:53:23;;;;;;;5.28;2.22;;;;;;;;;;5027984;28;20026;-91
2023/11/01 02:55:48;;;;;;;4.82;2.25;;;;;;;;;;5040170;28;20025;-91
2023/11/01 02:58:13;;;;;;;8.25;2.45;;;;;;;;;;5024348;28;20038;-91
2023/11/01 03:00:39;;;;;;;6.03;2.50;;;;;;;;;;5025724;28;20116;-92
2023/11/01 03:03:04;;;;;;;5.63;2.30;;;;;;;;;;5022576;28;20051;-86
2023/11/01 03:05:29;;;;;;;6.15;2.42;;;;;;;;;;5025937;28;20038;-89
2023/11/01 03:07:56;;;;;;;6.15;2.40;;;;;;;;;;5029073;28;20021;-90
2023/11/01 03:10:21;;;;;;;5.80;2.20;;;;;;;;;;5026714;28;20040;-90
2023/11/01 03:12:47;;;;;;;7.53;2.40;;;;;;;;;;5025922;28;20022;-90
2023/11/01 03:15:12;;;;;;;4.22;2.30;;;;;;;;;;5025319;28;20115;-90
2023/11/01 03:17:38;;;;;;;7.15;2.63;;;;;;;;;;5018571;28;20486;-84
2023/11/01 03:20:05;;;;;;;6.15;2.20;;;;;;;;;;5041583;28;20043;-90
2023/11/01 03:22:31;;;;;;;5.45;2.00;;;;;;;;;;5019911;28;20029;-87
2023/11/01 03:24:57;;;;;;;5.13;2.03;;;;;;;;;;5017885;28;20079;-87
2023/11/01 03:27:22;;;;;;;6.85;2.35;;;;;;;;;;5022496;28;20044;-86
2023/11/01 03:29:48;;;;;;;6.18;2.22;;;;;;;;;;5036275;28;20396;-87
2023/11/01 03:32:13;;;;;;;9.93;2.22;;;;;;;;;;5031478;28;20385;-90
2023/11/01 03:34:39;;;;;;;7.28;2.58;;;;;;;;;;5017163;28;20091;-88
2023/11/01 03:37:07;;;;;;;4.72;2.15;;;;;;;;;;5016681;28;20128;-86
2023/11/01 03:39:35;;;;;;;4.35;2.00;;;;;;;;;;5021429;28;20025;-87
2023/11/01 03:42:04;;;;;;;5.90;2.22;;;;;;;;;;5020743;28;20753;-91
2023/11/01 03:44:32;;;;;;;5.07;2.03;;;;;;;;;;5022179;28;20037;-89
2023/11/01 03:46:57;;;;;;;5.88;2.00;;;;;;;;;;5032728;28;20037;-84
2023/11/01 03:49:25;;;;;;;3.58;1.98;;;;;;;;;;5035585;28;20666;-89
2023/11/01 03:51:51;;;;;;;4.63;2.10;;;;;;;;;;5022853;28;21499;-86
2023/11/01 03:54:16;;;;;;;3.25;1.58;;;;;;;;;;5035730;28;20040;-81
2023/11/01 03:56:42;;;;;;;3.92;1.70;;;;;;;;;;5017861;28;20032;-82
2023/11/01 03:59:08;;;;;;;3.28;1.60;;;;;;;;;;5014292;28;20775;-82
2023/11/01 04:01:33;;;;;;;6.10;1.70;;;;;;;;;;5017645;28;20025;-82
2023/11/01 04:03:59;;;;;;;4.78;1.70;;;;;;;;;;5018622;28;20036;-82
2023/11/01 04:06:24;;;;;;;3.13;1.42;;;;;;;;;;5022087;28;20377;-81
2023/11/01 04:08:49;;;;;;;4.05;1.77;;;;;;;;;;5019223;28;20036;-85
2023/11/01 04:11:15;;;;;;;3.40;1.63;;;;;;;;;;5026581;28;20033;-88
2023/11/01 04:13:40;;;;;;;3.22;1.60;;;;;;;;;;5023130;28;20022;-87
2023/11/01 04:16:07;;;;;;;2.60;1.55;;;;;;;;;;5020217;28;20028;-87
2023/11/01 04:18:34;;;;;;;3.00;1.40;;;;;;;;;;5024836;28;20029;-90
2023/11/01 04:21:00;;;;;;;3.03;1.55;;;;;;;;;;5021233;28;20033;-90
2023/11/01 04:23:26;;;;;;;3.17;1.40;;;;;;;;;;5025610;28;20044;-88
2023/11/01 04:25:52;;;;;;;4.00;1.38;;;;;;;;;;5017494;28;20054;-89
2023/11/01 04:28:17;;;;;;;3.92;1.80;;;;;;;;;;5023356;28;20076;-89
2023/11/01 04:30:43;;;;;;;3.83;1.40;;;;;;;;;;5023851;28;20423;-91
2023/11/01 04:33:11;;;;;;;5.43;1.70;;;;;;;;;;5020090;28;20025;-91
2023/11/01 04:35:37;;;;;;;2.53;1.52;;;;;;;;;;5021364;28;20104;-91
2023/11/01 04:38:03;;;;;;;4.40;1.77;;;;;;;;;;5020890;28;20553;-88
2023/11/01 04:40:29;;;;;;;2.88;1.58;;;;;;;;;;5019258;28;20060;-90
2023/11/01 04:42:54;;;;;;;3.30;1.90;;;;;;;;;;5017332;28;20033;-91
2023/11/01 04:45:19;;;;;;;3.55;1.77;;;;;;;;;;5028355;28;20029;-86
2023/11/01 04:47:46;;;;;;;2.85;1.73;;;;;;;;;;5023409;28;20025;-91
2023/11/01 04:50:14;;;;;;;3.42;1.80;;;;;;;;;;5022151;28;20029;-89
2023/11/01 04:52:41;;;;;;;4.40;2.13;;;;;;;;;;5019964;28;20071;-88
2023/11/01 04:55:10;;;;;;;5.10;2.03;;;;;;;;;;5022074;28;20082;-89
2023/11/01 04:57:36;;;;;;;4.38;2.03;;;;;;;;;;5034073;28;20032;-89
2023/11/01 05:00:09;;;;;;;4.60;2.15;;;;;;;;;;5020788;28;20486;-88
2023/11/01 05:02:35;;;;;;;5.40;2.28;;;;;;;;;;5022754;28;20539;-89
2023/11/01 05:05:05;;;;;;;4.30;2.15;;;;;;;;;;5020455;28;21986;-82
2023/11/01 05:07:31;;;;;;;4.00;1.92;;;;;;;;;;5015971;28;20109;-83
2023/11/01 05:09:57;;;;;;;6.78;2.38;;;;;;;;;;5025008;28;20444;-82
2023/11/01 05:12:22;;;;;;;5.55;2.20;;;;;;;;;;5020295;28;20033;-82
2023/11/01 05:14:47;;;;;;;6.45;2.72;;;;;;;;;;5019123;28;20514;-83
2023/11/01 05:17:13;;;;;;;5.28;2.35;;;;;;;;;;5018872;28;20022;-83
2023/11/01 05:19:38;;;;;;;9.50;2.60;;;;;;;;;;5027397;28;20153;-85
2023/11/01 05:22:03;;;;;;;4.80;2.50;;;;;;;;;;5037569;28;20059;-83
2023/11/01 05:24:29;;;;;;;6.88;2.53;;;;;;;;;;5022342;28;20112;-82
2023/11/01 05:26:54;;;;;;;8.10;3.00;;;;;;;;;;5024274;28;20152;-89
2023/11/01 05:29:19;;;;;;;7.97;3.13;;;;;;;;;;5027903;28;20032;-88
2023/11/01 05:31:46;;;;;;;5.28;2.80;;;;;;;;;;5020496;28;20712;-91
2023/11/01 05:34:11;;;;;;;6.75;2.72;;;;;;;;;;5020704;28;20021;-81
2023/11/01 05:36:38;;;;;;;7.32;2.53;;;;;;;;;;5022636;28;20078;-80
2023/11/01 05:39:05;;;;;;;6.75;2.95;;;;;;;;;;5017420;28;20116;-80
2023/11/01 05:41:31;;;;;;;8.18;2.70;;;;;;;;;;5018447;28;20041;-82
2023/11/01 05:43:56;;;;;;;6.35;2.55;;;;;;;;;;5014791;28;20041;-82
2023/11/01 05:46:22;;;;;;;9.52;3.35;;;;;;;;;;5006100;28;20030;-80
2023/11/01 05:48:49;;;;;;;6.63;2.63;;;;;;;;;;5008527;28;20030;-81
2023/11/01 05:51:17;;;;;;;6.97;2.45;;;;;;;;;;5018439;28;20033;-81
2023/11/01 05:53:44;;;;;;;7.78;2.72;;;;;;;;;;5022836;28;20025;-81
2023/11/01 05:56:13;;;;;;;7.97;2.58;;;;;;;;;;5025256;28;20469;-83
2023/11/01 05:58:38;;;;;;;11.43;2.40;;;;;;;;;;5020562;28;20124;-81
2023/11/01 06:01:06;;;;;;;6.63;2.65;;;;;;;;;;5027302;28;20110;-81
2023/11/01 06:03:31;;;;;;;8.23;2.40;;;;;;;;;;5027342;28;20033;-80
2023/11/01 06:05:57;;;;;;;7.72;2.35;;;;;;;;;;5030495;28;20033;-81
2023/11/01 06:08:23;;;;;;;9.77;2.50;;;;;;;;;;5024470;28;20021;-81
2023/11/01 06:10:48;;;;;;;8.40;2.25;;;;;;;;;;5025128;28;20026;-81
2023/11/01 06:13:14;;;;;;;10.07;2.28;;;;;;;;;;5026052;28;20178;-83
2023/11/01 06:15:39;;;;;;;9.57;2.90;;;;;;;;;;5029664;28;20047;-87
2023/11/01 06:18:05;;;;;;;8.10;2.08;;;;;;;;;;5025556;28;20069;-89
2023/11/01 06:20:34;;;;;;;8.73;2.05;;;;;;;;;;5029580;28;20538;-89
2023/11/01 06:23:00;;;;;;;8.95;2.38;;;;;;;;;;5022726;28;20116;-89
2023/11/01 06:25:26;;;;;;;6.85;1.83;;;;;;;;;;5023844;28;20374;-88
2023/11/01 06:27:51;;;;;;;10.68;1.90;;;;;;;;;;5024992;28;20033;-89
2023/11/01 06:30:17;;;;;;;11.48;2.05;;;;;;;;;;5026218;28;20602;-88
2023/11/01 06:32:43;;;;;;;9.73;2.08;;;;;;;;;;5027204;28;20488;-88
2023/11/01 06:35:08;;;;;;;6.60;2.00;;;;;;;;;;5027177;28;20029;-89
2023/11/01 06:37:34;;;;;;;8.18;2.10;;;;;;;;;;5026372;28;20026;-91
2023/11/01 06:40:01;;;;;;;8.48;2.38;;;;;;;;;;5027624;28;20064;-91
2023/11/01 06:42:26;;;;;;;7.20;2.35;;;;;;;;;;5027146;28;20033;-86
2023/11/01 06:44:51;;;;;;;8.98;2.22;;;;;;;;;;5028814;28;20033;-91
2023/11/01 06:47:17;;;;;;;8.75;2.40;;;;;;;;;;5027437;28;20029;-87
2023/11/01 06:49:42;;;;;;;12.75;2.75;;;;;;;;;;5027510;28;20025;-93
2023/11/01 06:52:08;;;;;;;10.00;2.45;;;;;;;;;;5028075;28;20033;-91
2023/11/01 06:54:36;;;;;;;8.48;2.45;;;;;;;;;;5025599;28;20033;-90
2023/11/01 06:57:02;;;;;;;15.57;3.35;;;;;;;;;;5030456;28;20021;-92
2023/11/01 06:59:27;;;;;;;12.43;2.80;;;;;;;;;;5023058;28;20377;-92
2023/11/01 07:01:53;;;;;;;10.32;2.50;;;;;;;;;;5029744;28;20071;-92
2023/11/01 07:04:18;;;;;;;8.55;2.17;;;;;;;;;;5035247;28;20029;-90
2023/11/01 07:06:44;;;;;;;8.68;2.55;;;;;;;;;;5027268;28;20024;-92
2023/11/01 07:09:09;;;;;;;8.43;2.55;;;;;;;;;;5036778;28;20033;-82
2023/11/01 07:11:37;;;;;;;9.38;2.53;;;;;;;;;;5030813;28;20116;-83
2023/11/01 07:14:06;;;;;;;7.90;2.30;;;;;;;;;;5031490;28;20048;-83
2023/11/01 07:16:34;;;;;;;13.65;2.33;;;;;;;;;;5028150;28;20435;-83
2023/11/01 07:18:59;;;;;;;6.88;2.20;;;;;;;;;;5023389;28;20112;-83
2023/11/01 07:21:25;;;;;;;10.30;2.33;;;;;;;;;;5026023;28;20159;-83
2023/11/01 07:23:50;;;;;;;8.27;2.20;;;;;;;;;;5028011;28;20552;-83
2023/11/01 07:26:16;;;;;;;6.82;2.15;;;;;;;;;;5028548;28;20036;-83
2023/11/01 07:28:43;;;;;;;8.18;1.92;;;;;;;;;;5016902;28;20055;-83
2023/11/01 07:31:08;;;;;;;11.82;2.88;;;;;;;;;;5025917;28;20029;-83
2023/11/01 07:33:34;;;;;;;8.30;2.28;;;;;;;;;;5043245;28;20040;-83
2023/11/01 07:36:01;;;;;;;9.23;2.20;;;;;;;;;;5028356;28;20032;-89
2023/11/01 07:38:26;;;;;;;7.32;1.90;;;;;;;;;;5020303;28;20033;-83
2023/11/01 07:40:51;;;;;;;14.85;2.75;;;;;;;;;;5025062;28;20511;-83
2023/11/01 07:43:17;;;;;;;8.73;2.35;;;;;;;;;;5018565;28;20124;-83
2023/11/01 07:45:42;;;;;;;9.88;1.60;;;;;;;;;;5022497;28;20037;-83
2023/11/01 07:48:08;;;;;;;7.43;1.92;;;;;;;;;;5025259;28;20029;-83
2023/11/01 07:50:33;;;;;;;10.68;2.13;;;;;;;;;;5017520;28;20037;-84
2023/11/01 07:52:59;;;;;;;9.82;1.95;;;;;;;;;;5020034;28;20037;-84
2023/11/01 07:55:24;;;;;;;11.02;1.73;;;;;;;;;;5023369;28;20048;-83
2023/11/01 07:57:49;;;;;;;12.63;1.75;;;;;;;;;;5022795;28;20037;-83
2023/11/01 08:00:15;;;;;;;8.57;2.30;;;;;;;;;;5024616;28;20359;-83
2023/11/01 08:02:41;;;;;;;9.27;1.73;;;;;;;;;;5026939;28;20079;-83
2023/11/01 08:05:06;;;;;;;8.45;2.00;;;;;;;;;;5025610;28;20527;-83
2023/11/01 08:07:33;;;;;;;9.88;2.15;;;;;;;;;;5026410;28;20485;-83
2023/11/01 08:09:59;;;;;;;6.63;1.75;;;;;;;;;;5023936;28;20398;-85
2023/11/01 08:12:24;;;;;;;13.20;2.20;;;;;;;;;;5044740;28;20034;-83
2023/11/01 08:14:50;;;;;;;10.27;1.90;;;;;;;;;;5027774;28;20423;-83
2023/11/01 08:17:17;;;;;;;7.88;1.70;;;;;;;;;;5029607;28;20013;-83
2023/11/01 08:19:43;;;;;;;7.68;1.58;;;;;;;;;;5039926;28;20033;-83
2023/11/01 08:22:12;;;;;;;7.95;1.83;;;;;;;;;;5028664;28;20563;-82
2023/11/01 08:24:41;;;;;;;9.23;1.88;;;;;;;;;;5030909;28;20043;-83
2023/11/01 08:27:07;;;;;;;11.32;1.90;;;;;;;;;;5030386;28;20481;-83
2023/11/01 08:29:35;;;;;;;6.97;1.73;;;;;;;;;;5028597;28;20018;-83
2023/11/01 08:32:05;;;;;;;7.60;1.75;;;;;;;;;;5043730;28;20040;-84
2023/11/01 08:34:31;;;;;;;6.35;1.60;;;;;;;;;;5048889;28;20044;-91
2023/11/01 08:36:56;;;;;;;6.72;1.90;;;;;;;;;;5049179;28;20021;-89
2023/11/01 08:39:22;;;;;;;6.22;1.48;;;;;;;;;;5041060;28;20021;-92
2023/11/01 08:41:47;;;;;;;6.20;1.90;;;;;;;;;;5042959;28;20103;-90
2023/11/01 08:44:13;;;;;;;8.35;1.65;;;;;;;;;;5031677;28;20190;-82
2023/11/01 08:46:38;;;;;;;11.13;1.70;;;;;;;;;;5027844;28;20029;-81
2023/11/01 08:49:03;;;;;;;10.15;1.70;;;;;;;;;;5027490;28;20505;-81
2023/11/01 08:51:32;;;;;;;9.13;1.77;;;;;;;;;;5030110;28;20029;-82
2023/11/01 08:53:59;;;;;;;6.35;1.40;;;;;;;;;;5038432;28;20050;-82
2023/11/01 08:56:25;;;;;;;10.88;1.63;;;;;;;;;;5030041;28;20033;-81
2023/11/01 08:58:50;;;;;;;7.60;2.03;;;;;;;;;;5028216;28;20045;-80
2023/11/01 09:01:17;;;;;;;9.15;1.77;;;;;;;;;;5028094;28;20034;-81
2023/11/01 09:03:42;;;;;;;6.45;1.70;;;;;;;;;;5025931;28;20508;-82
2023/11/01 09:06:09;;;;;;;9.30;2.30;;;;;;;;;;5031677;28;20053;-83
2023/11/01 09:08:35;;;;;;;7.82;1.50;;;;;;;;;;5027146;28;20034;-82
2023/11/01 09:11:01;;;;;;;9.93;1.58;;;;;;;;;;5039780;28;20052;-82
2023/11/01 09:13:27;;;;;;;8.95;1.80;;;;;;;;;;5030357;28;20036;-81
2023/11/01 09:15:52;;;;;;;6.93;1.95;;;;;;;;;;5015624;28;20472;-81
2023/11/01 09:18:17;;;;;;;9.90;1.80;;;;;;;;;;5031380;28;20384;-82
2023/11/01 09:20:44;;;;;;;10.98;1.73;;;;;;;;;;5028666;28;20033;-82
2023/11/01 09:23:09;;;;;;;7.60;1.52;;;;;;;;;;5035194;28;20033;-82
2023/11/01 09:25:39;;;;;;;12.05;1.63;;;;;;;;;;5029539;28;20469;-82
2023/11/01 09:28:06;;;;;;;9.85;1.92;;;;;;;;;;5033740;28;20394;-82
2023/11/01 09:30:31;;;;;;;11.15;1.77;;;;;;;;;;5033220;28;20384;-82
2023/11/01 09:32:56;;;;;;;7.13;1.65;;;;;;;;;;5030477;28;20029;-82
2023/11/01 09:35:22;;;;;;;6.40;1.42;;;;;;;;;;5033361;28;20144;-83
2023/11/01 09:37:48;;;;;;;5.00;1.38;;;;;;;;;;5038340;28;20025;-82
2023/11/01 09:40:13;;;;;;;10.10;1.52;;;;;;;;;;5029707;28;20026;-81
2023/11/01 09:42:39;;;;;;;8.40;1.35;;;;;;;;;;5034541;28;20033;-83
2023/11/01 09:45:12;;;;;;;9.40;1.67;;;;;;;;;;5028827;28;20052;-91
2023/11/01 09:47:38;;;;;;;11.52;2.42;;;;;;;;;;5046219;28;20275;-90
2023/11/01 09:50:10;;;;;;;6.97;1.60;;;;;;;;;;5028322;28;20095;-88
2023/11/01 09:52:37;;;;;;;10.87;1.67;;;;;;;;;;5044984;28;20022;-89
2023/11/01 09:55:04;;;;;;;8.23;1.52;;;;;;;;;;5034641;28;20040;-86
2023/11/01 09:57:32;;;;;;;7.63;1.65;;;;;;;;;;5030793;28;20558;-84
2023/11/01 09:59:57;;;;;;;7.53;1.48;;;;;;;;;;5026179;28;20809;-85
2023/11/01 10:02:23;;;;;;;7.13;1.38;;;;;;;;;;5039850;28;20033;-83
2023/11/01 10:04:50;;;;;;;7.60;1.70;;;;;;;;;;5031567;28;20037;-86
2023/11/01 10:07:17;;;;;;;10.68;1.77;;;;;;;;;;5029751;28;20025;-83
2023/11/01 10:09:46;;;;;;;9.68;1.50;;;;;;;;;;5030174;28;20412;-84
2023/11/01 10:12:13;;;;;;;8.05;1.40;;;;;;;;;;5027726;28;20059;-83
2023/11/01 10:14:39;;;;;;;6.20;1.75;;;;;;;;;;5040072;28;20036;-83
2023/11/01 10:17:04;;;;;;;6.95;1.50;;;;;;;;;;5037305;28;20017;-84
2023/11/01 10:19:30;;;;;;;8.77;1.60;;;;;;;;;;5035235;28;20133;-83
2023/11/01 10:21:57;;;;;;;7.22;1.30;;;;;;;;;;5026343;28;20029;-83
2023/11/01 10:24:25;;;;;;;12.10;2.40;;;;;;;;;;5030237;28;20068;-83
2023/11/01 10:26:55;;;;;;;8.70;1.48;;;;;;;;;;5026316;28;20041;-83
2023/11/01 10:29:21;;;;;;;5.82;1.50;;;;;;;;;;5026454;28;20036;-83
2023/11/01 10:31:54;;;;;;;5.97;1.35;;;;;;;;;;5028062;28;20472;-84
2023/11/01 10:34:25;;;;;;;5.80;1.95;;;;;;;;;;5027538;28;20021;-84
2023/11/01 10:36:52;;;;;;;6.95;1.40;;;;;;;;;;5019734;28;20165;-83
2023/11/01 10:39:19;;;;;;;7.47;1.80;;;;;;;;;;5028620;28;20485;-83
2023/11/01 10:41:49;;;;;;;7.65;1.73;;;;;;;;;;5020023;28;20485;-84
2023/11/01 10:44:15;;;;;;;9.98;1.48;;;;;;;;;;5035299;28;20029;-83
2023/11/01 10:46:41;;;;;;;8.23;2.50;;;;;;;;;;5038885;28;20030;-83
2023/11/01 10:49:10;;;;;;;6.55;1.70;;;;;;;;;;5019449;28;20025;-83
2023/11/01 10:51:37;;;;;;;5.93;1.50;;;;;;;;;;5023029;28;20042;-84
2023/11/01 10:54:02;;;;;;;7.18;1.55;;;;;;;;;;5024708;28;20120;-84
2023/11/01 10:56:28;;;;;;;7.70;1.60;;;;;;;;;;5021458;28;20155;-85
2023/11/01 10:58:58;;;;;;;7.85;1.60;;;;;;;;;;5036484;28;20033;-83
2023/11/01 11:01:32;;;;;;;6.43;1.70;;;;;;;;;;5032542;28;20025;-84
2023/11/01 11:04:26;;;;;;;5.63;1.38;;;;;;;;;;5043151;28;20486;-87
2023/11/01 11:07:32;;;;;;;7.15;1.33;;;;;;;;;;5019818;28;20033;-87
2023/11/01 11:10:23;;;;;;;5.88;1.60;;;;;;;;;;5018531;28;20445;-87
2023/11/01 11:13:08;;;;;;;4.93;1.25;;;;;;;;;;5018608;28;20033;-87
2023/11/01 11:15:46;;;;;;;5.45;1.92;;;;;;;;;;5023973;28;20032;-83
2023/11/01 11:18:14;;;;;;;8.02;1.45;;;;;;;;;;5021807;28;20138;-83
2023/11/01 11:20:39;;;;;;;6.00;1.40;;;;;;;;;;5020383;28;20083;-84
2023/11/01 11:23:06;;;;;;;12.40;1.70;;;;;;;;;;5021169;28;20025;-83
2023/11/01 11:25:45;;;;;;;9.70;2.25;;;;;;;;;;5035908;28;20112;-88
2023/11/01 11:28:17;;;;;;;5.45;1.30;;;;;;;;;;5021787;28;20420;-87
2023/11/01 11:31:09;;;;;;;6.70;1.48;;;;;;;;;;5020921;28;20044;-85
2023/11/01 11:33:55;;;;;;;6.25;1.40;;;;;;;;;;5024243;28;20017;-86
2023/11/01 11:36:25;;;;;;;6.18;1.27;;;;;;;;;;5024876;28;20037;-87
2023/11/01 11:39:01;;;;;;;4.72;1.30;;;;;;;;;;5025783;28;20441;-85
2023/11/01 11:41:36;;;;;;;6.78;1.45;;;;;;;;;;5030626;28;20083;-86
2023/11/01 11:44:19;;;;;;;5.90;1.50;;;;;;;;;;5024922;28;20463;-87
2023/11/01 11:46:59;;;;;;;4.63;1.45;;;;;;;;;;5040998;28;20112;-84
2023/11/01 11:49:27;;;;;;;5.10;1.23;;;;;;;;;;5020248;28;20147;-87
2023/11/01 11:51:54;;;;;;;7.75;1.40;;;;;;;;;;5024380;28;20052;-85
2023/11/01 11:54:22;;;;;;;5.88;1.63;;;;;;;;;;5027550;28;20040;-87
2023/11/01 11:56:52;;;;;;;4.38;1.50;;;;;;;;;;5023059;28;20021;-85
2023/11/01 11:59:20;;;;;;;3.88;1.20;;;;;;;;;;5023903;28;20041;-86
2023/11/01 12:01:51;;;;;;;8.35;1.58;;;;;;;;;;5032196;28;20026;-86
2023/11/01 12:04:17;;;;;;;6.38;1.25;;;;;;;;;;5025098;28;20114;-85
2023/11/01 12:06:52;;;;;;;6.05;1.10;;;;;;;;;;5024138;28;20488;-86
2023/11/01 12:09:21;;;;;;;7.80;1.23;;;;;;;;;;5025614;28;20036;-87
2023/11/01 12:11:52;;;;;;;7.07;1.40;;;;;;;;;;5028656;28;20098;-85
2023/11/01 12:14:22;;;;;;;5.40;1.02;;;;;;;;;;5019708;28;20504;-85
2023/11/01 12:16:49;;;;;;;3.58;0.95;;;;;;;;;;5032161;28;20144;-85
2023/11/01 12:19:22;;;;;;;5.28;1.00;;;;;;;;;;5018294;28;20401;-85
2023/11/01 12:21:52;;;;;;;6.05;1.00;;;;;;;;;;5019732;28;20029;-85
2023/11/01 12:24:20;;;;;;;5.35;1.20;;;;;;;;;;5034901;28;20041;-85
2023/11/01 12:27:00;;;;;;;4.43;1.20;;;;;;;;;;5023198;28;20061;-85
2023/11/01 12:29:45;;;;;;;3.92;1.02;;;;;;;;;;5036174;28;20029;-85
2023/11/01 12:32:15;;;;;;;6.80;1.02;;;;;;;;;;5024895;28;20061;-85
2023/11/01 12:34:47;;;;;;;5.35;1.20;;;;;;;;;;5024419;28;20049;-84
2023/11/01 12:37:20;;;;;;;4.65;1.00;;;;;;;;;;5023921;28;20025;-84
2023/11/01 12:40:12;;;;;;;6.03;1.10;;;;;;;;;;5034805;28;20033;-84
2023/11/01 12:42:51;;;;;;;6.28;1.10;;;;;;;;;;5030013;28;20026;-84
2023/11/01 12:45:23;;;;;;;2.85;0.80;;;;;;;;;;5027483;28;20482;-88
2023/11/01 12:47:52;;;;;;;8.57;1.20;;;;;;;;;;5023127;28;20551;-88
2023/11/01 12:50:25;;;;;;;5.40;1.30;;;;;;;;;;5023956;28;20033;-89
2023/11/01 12:52:53;;;;;;;3.45;0.82;;;;;;;;;;5033117;28;20068;-89
2023/11/01 12:55:19;;;;;;;3.90;0.80;;;;;;;;;;5017059;28;20073;-82
2023/11/01 12:57:50;;;;;;;4.13;1.25;;;;;;;;;;5017415;28;20025;-81
2023/11/01 13:00:17;;;;;;;5.22;1.20;;;;;;;;;;5020455;28;20491;-82
2023/11/01 13:02:43;;;;;;;6.03;1.38;;;;;;;;;;5013713;28;20032;-81
2023/11/01 13:05:13;;;;;;;4.05;1.00;;;;;;;;;;5021705;28;20033;-81
2023/11/01 13:07:39;;;;;;;2.90;0.95;;;;;;;;;;5027939;28;20457;-82
2023/11/01 13:10:06;;;;;;;6.40;1.10;;;;;;;;;;5024783;28;20061;-82
2023/11/01 13:12:34;;;;;;;4.22;1.13;;;;;;;;;;5039018;28;20462;-83
2023/11/01 13:14:59;;;;;;;6.25;1.13;;;;;;;;;;5023262;28;20555;-82
2023/11/01 13:17:24;;;;;;;5.03;1.17;;;;;;;;;;5023917;28;20108;-81
2023/11/01 13:19:50;;;;;;;5.95;1.30;;;;;;;;;;5020607;28;20044;-82
2023/11/01 13:22:15;;;;;;;2.55;0.82;;;;;;;;;;5019165;28;20028;-82
2023/11/01 13:24:41;;;;;;;7.65;1.83;;;;;;;;;;5021822;28;20037;-81
2023/11/01 13:27:10;;;;;;;6.38;1.83;;;;;;;;;;5019726;28;20481;-83
2023/11/01 13:29:36;;;;;;;4.38;1.17;;;;;;;;;;5026356;28;20568;-81
2023/11/01 13:32:02;;;;;;;4.97;1.05;;;;;;;;;;5021945;28;20072;-82
2023/11/01 13:34:27;;;;;;;6.05;1.00;;;;;;;;;;5029695;28;20063;-82
2023/11/01 13:36:53;;;;;;;6.35;1.10;;;;;;;;;;5023814;28;20030;-77
2023/11/01 13:39:18;;;;;;;3.75;1.10;;;;;;;;;;5033521;28;20034;-79
2023/11/01 13:41:44;;;;;;;5.72;0.93;;;;;;;;;;5023633;28;20032;-78
2023/11/01 13:44:09;;;;;;;5.03;1.10;;;;;;;;;;5022944;28;20128;-77
2023/11/01 13:46:36;;;;;;;7.55;1.20;;;;;;;;;;5027295;28;22136;-77
2023/11/01 13:49:03;;;;;;;4.38;0.82;;;;;;;;;;5025314;28;20033;-80
2023/11/01 13:51:28;;;;;;;4.22;1.10;;;;;;;;;;5025599;28;20111;-76
2023/11/01 13:53:54;;;;;;;5.25;1.02;;;;;;;;;;5021692;28;20045;-80
2023/11/01 13:56:19;;;;;;;7.47;1.42;;;;;;;;;;5024824;28;20032;-80
2023/11/01 13:58:50;;;;;;;3.95;1.13;;;;;;;;;;5023464;28;20027;-80
2023/11/01 14:01:15;;;;;;;5.32;1.17;;;;;;;;;;5023436;28;20037;-80
2023/11/01 14:03:42;;;;;;;5.20;1.20;;;;;;;;;;5023259;28;20034;-80
2023/11/01 14:06:08;;;;;;;4.65;0.93;;;;;;;;;;5025220;28;20092;-80
2023/11/01 14:08:33;;;;;;;3.72;1.00;;;;;;;;;;5049109;28;20025;-80
2023/11/01 14:10:59;;;;;;;5.53;1.10;;;;;;;;;;5032856;28;20088;-80
2023/11/01 14:13:24;;;;;;;4.18;0.93;;;;;;;;;;5025105;28;20045;-80
2023/11/01 14:15:50;;;;;;;6.78;1.25;;;;;;;;;;5030237;28;20485;-80
2023/11/01 14:18:19;;;;;;;4.43;1.02;;;;;;;;;;5037111;28;20734;-80
2023/11/01 14:20:49;;;;;;;4.53;0.98;;;;;;;;;;5023138;28;20025;-81
2023/11/01 14:23:15;;;;;;;2.25;0.60;;;;;;;;;;5026180;28;20371;-80
2023/11/01 14:25:40;;;;;;;4.47;1.00;;;;;;;;;;5040081;28;20042;-80
2023/11/01 14:28:06;;;;;;;5.25;1.02;;;;;;;;;;5030711;28;20120;-81
2023/11/01 14:30:32;;;;;;;2.22;0.75;;;;;;;;;;5030949;28;20362;-80
2023/11/01 14:32:57;;;;;;;4.22;0.80;;;;;;;;;;5030754;28;20029;-80
2023/11/01 14:35:24;;;;;;;4.50;1.17;;;;;;;;;;5049985;28;20033;-80
2023/11/01 14:37:49;;;;;;;3.28;1.13;;;;;;;;;;5031631;28;20104;-81
2023/11/01 14:40:15;;;;;;;3.67;0.80;;;;;;;;;;5025139;28;20120;-81